createdAt,value
2023-06-06T00:00:20.150Z,100556.34
2023-06-06T00:00:54.423Z,100550.41
2023-06-06T00:01:26.720Z,100551.53
2023-06-06T00:02:01.539Z,100549.63
2023-06-06T00:02:34.412Z,100553.44
2023-06-06T00:03:07.010Z,100544.47
2023-06-06T00:03:42.417Z,100548.00
2023-06-06T00:04:14.919Z,100552.63
2023-06-06T00:04:51.422Z,100555.38
2023-06-06T00:05:26.995Z,100546.38
2023-06-06T00:06:00.657Z,100548.28
2023-06-06T00:06:34.950Z,100552.16
2023-06-06T00:07:10.433Z,100554.88
2023-06-06T00:07:44.658Z,100556.81
2023-06-06T00:08:17.156Z,100552.47
2023-06-06T00:08:54.026Z,100558.72
2023-06-06T00:09:26.274Z,100551.94
2023-06-06T00:09:58.501Z,100547.63
2023-06-06T00:10:33.425Z,100556.91
2023-06-06T00:11:05.943Z,100556.91
2023-06-06T00:11:40.883Z,100551.72
2023-06-06T00:12:15.704Z,100562.66
2023-06-06T00:12:48.309Z,100559.44
2023-06-06T00:13:21.927Z,100551.25
2023-06-06T00:13:59.972Z,100551.25
2023-06-06T00:14:32.621Z,100549.94
2023-06-06T00:15:06.804Z,100553.47
2023-06-06T00:15:42.097Z,100549.13
2023-06-06T00:16:15.403Z,100555.72
2023-06-06T00:16:50.819Z,100553.78
2023-06-06T00:17:26.667Z,100550.25
2023-06-06T00:18:01.180Z,100558.44
2023-06-06T00:18:33.510Z,100556.81
2023-06-06T00:19:08.279Z,100566.91
2023-06-06T00:19:42.114Z,100556.81
2023-06-06T00:20:14.890Z,100551.66
2023-06-06T00:20:49.909Z,100550.84
2023-06-06T00:21:22.803Z,100553.91
2023-06-06T00:21:55.283Z,100558.22
2023-06-06T00:22:30.104Z,100558.22
2023-06-06T00:23:02.402Z,100556.63
2023-06-06T00:23:34.814Z,100553.09
2023-06-06T00:24:09.934Z,100555.50
2023-06-06T00:24:42.287Z,100562.09
2023-06-06T00:25:14.578Z,100565.13
2023-06-06T00:25:50.966Z,100560.47
2023-06-06T00:26:23.160Z,100564.31
2023-06-06T00:26:56.346Z,100560.78
2023-06-06T00:27:31.192Z,100558.03
2023-06-06T00:28:03.462Z,100557.22
2023-06-06T00:28:35.753Z,100558.03
2023-06-06T00:29:13.690Z,100566.22
2023-06-06T00:29:45.986Z,100569.28
2023-06-06T00:30:18.192Z,100561.09
2023-06-06T00:30:51.610Z,100563.00
2023-06-06T00:31:26.479Z,100560.28
2023-06-06T00:31:58.719Z,100557.56
2023-06-06T00:32:31.118Z,100567.66
2023-06-06T00:33:05.932Z,100560.28
2023-06-06T00:33:38.154Z,100553.22
2023-06-06T00:34:10.384Z,100553.22
2023-06-06T00:34:45.386Z,100557.84
2023-06-06T00:35:17.609Z,100554.31
2023-06-06T00:35:50.796Z,100559.47
2023-06-06T00:36:25.604Z,100558.66
2023-06-06T00:36:59.253Z,100558.97
2023-06-06T00:37:31.441Z,100549.97
2023-06-06T00:38:06.312Z,100556.25
2023-06-06T00:38:39.031Z,100552.69
2023-06-06T00:39:11.310Z,100551.59
2023-06-06T00:39:46.543Z,100550.78
2023-06-06T00:40:18.722Z,100549.16
2023-06-06T00:40:51.213Z,100551.91
2023-06-06T00:41:34.998Z,100556.56
2023-06-06T00:42:09.073Z,100551.41
2023-06-06T00:42:41.427Z,100550.59
2023-06-06T00:43:16.273Z,100552.22
2023-06-06T00:43:55.452Z,100549.50
2023-06-06T00:46:02.178Z,100559.31
2023-06-06T00:46:34.778Z,100552.75
2023-06-06T00:47:08.155Z,100552.16
2023-06-06T00:47:43.340Z,100560.00
2023-06-06T00:48:16.861Z,100558.09
2023-06-06T00:48:49.237Z,100556.16
2023-06-06T00:49:24.484Z,100561.31
2023-06-06T00:49:57.674Z,100560.22
2023-06-06T00:50:30.103Z,100561.00
2023-06-06T00:51:05.067Z,100553.63
2023-06-06T00:51:38.349Z,100555.53
2023-06-06T00:52:11.244Z,100561.00
2023-06-06T00:52:47.830Z,100559.88
2023-06-06T00:53:21.461Z,100560.22
2023-06-06T00:53:55.190Z,100564.53
2023-06-06T00:54:30.076Z,100570.00
2023-06-06T00:55:03.278Z,100557.50
2023-06-06T00:55:35.685Z,100559.06
2023-06-06T00:56:14.625Z,100554.44
2023-06-06T00:56:48.613Z,100561.31
2023-06-06T00:57:21.504Z,100564.84
2023-06-06T00:57:56.358Z,100566.44
2023-06-06T00:58:29.189Z,100553.94
2023-06-06T00:59:02.622Z,100563.72
2023-06-06T00:59:37.797Z,100562.63
2023-06-06T01:00:11.937Z,100555.53
2023-06-06T01:00:44.561Z,100561.00
2023-06-06T01:01:21.970Z,100556.34
2023-06-06T01:01:55.405Z,100559.41
2023-06-06T01:02:30.227Z,100561.81
2023-06-06T01:03:10.900Z,100562.63
2023-06-06T01:03:45.678Z,100564.34
2023-06-06T01:04:18.553Z,100561.31
2023-06-06T01:04:53.759Z,100560.50
2023-06-06T01:05:25.945Z,100565.16
2023-06-06T01:05:58.266Z,100558.59
2023-06-06T01:06:37.301Z,100562.94
2023-06-06T01:07:11.000Z,100561.31
2023-06-06T01:07:45.220Z,100559.69
2023-06-06T01:08:20.519Z,100562.44
2023-06-06T01:08:52.718Z,100563.53
2023-06-06T01:09:25.047Z,100560.81
2023-06-06T01:09:59.931Z,100563.53
2023-06-06T01:10:32.549Z,100563.88
2023-06-06T01:11:12.095Z,100562.72
2023-06-06T01:11:56.672Z,100562.53
2023-06-06T01:12:48.781Z,100555.78
2023-06-06T01:13:36.919Z,100560.25
2023-06-06T01:14:15.121Z,100559.72
2023-06-06T01:14:53.934Z,100554.28
2023-06-06T01:15:35.887Z,100558.13
2023-06-06T01:16:15.240Z,100558.44
2023-06-06T01:16:54.141Z,100557.63
2023-06-06T01:17:29.786Z,100552.19
2023-06-06T01:18:03.383Z,100555.72
2023-06-06T01:18:36.403Z,100556.53
2023-06-06T01:19:13.798Z,100557.31
2023-06-06T01:19:49.733Z,100549.94
2023-06-06T01:20:23.764Z,100558.13
2023-06-06T01:20:58.878Z,100557.31
2023-06-06T01:21:37.091Z,100556.53
2023-06-06T01:22:13.496Z,100557.63
2023-06-06T01:22:49.760Z,100554.91
2023-06-06T01:23:22.149Z,100555.19
2023-06-06T01:23:54.679Z,100557.63
2023-06-06T01:24:31.360Z,100557.31
2023-06-06T01:25:05.073Z,100558.72
2023-06-06T01:25:41.848Z,100560.34
2023-06-06T01:26:14.096Z,100567.72
2023-06-06T01:26:46.449Z,100556.81
2023-06-06T01:27:22.675Z,100558.72
2023-06-06T01:27:56.652Z,100559.84
2023-06-06T01:28:33.017Z,100564.47
2023-06-06T01:29:05.198Z,100562.09
2023-06-06T01:29:37.506Z,100561.28
2023-06-06T01:30:13.581Z,100563.19
2023-06-06T01:30:47.359Z,100568.63
2023-06-06T01:31:23.637Z,100564.59
2023-06-06T01:32:06.736Z,100566.81
2023-06-06T01:32:50.966Z,100563.59
2023-06-06T01:33:33.080Z,100576.22
2023-06-06T01:34:13.567Z,100567.84
2023-06-06T01:34:51.827Z,100564.63
2023-06-06T01:35:34.601Z,100569.28
2023-06-06T01:36:17.874Z,100568.47
2023-06-06T01:37:01.620Z,100565.22
2023-06-06T01:37:46.732Z,100573.41
2023-06-06T01:38:22.094Z,100565.53
2023-06-06T01:38:57.657Z,100569.03
2023-06-06T01:39:34.163Z,100572.59
2023-06-06T01:40:11.457Z,100572.59
2023-06-06T01:40:47.721Z,100573.72
2023-06-06T01:41:23.643Z,100577.22
2023-06-06T01:41:58.883Z,100569.84
2023-06-06T01:42:33.226Z,100569.03
2023-06-06T01:43:11.625Z,100578.84
2023-06-06T01:43:47.164Z,100564.72
2023-06-06T01:44:41.682Z,100573.72
2023-06-06T01:45:33.025Z,100569.03
2023-06-06T01:46:06.796Z,100569.03
2023-06-06T01:47:41.327Z,100570.66
2023-06-06T01:49:26.685Z,100574.50
2023-06-06T01:50:04.968Z,100569.28
2023-06-06T01:50:39.606Z,100570.09
2023-06-06T01:51:14.834Z,100575.72
2023-06-06T01:51:47.688Z,100569.94
2023-06-06T01:52:29.312Z,100577.53
2023-06-06T01:53:04.124Z,100570.47
2023-06-06T01:53:36.448Z,100572.09
2023-06-06T01:54:08.735Z,100567.63
2023-06-06T01:54:44.672Z,100574.38
2023-06-06T01:55:17.011Z,100572.47
2023-06-06T01:55:50.329Z,100566.72
2023-06-06T01:56:27.380Z,100571.06
2023-06-06T01:57:01.356Z,100569.44
2023-06-06T01:57:34.366Z,100576.19
2023-06-06T01:58:10.266Z,100566.91
2023-06-06T01:58:42.950Z,100566.09
2023-06-06T01:59:15.239Z,100571.25
2023-06-06T01:59:47.445Z,100570.16
2023-06-06T02:00:23.006Z,100565.47
2023-06-06T02:00:55.284Z,100573.19
2023-06-06T02:01:27.725Z,100572.56
2023-06-06T02:02:02.583Z,100571.44
2023-06-06T02:02:35.660Z,100565.19
2023-06-06T02:03:08.947Z,100566.81
2023-06-06T02:03:43.897Z,100573.88
2023-06-06T02:04:16.392Z,100571.16
2023-06-06T02:04:49.432Z,100571.63
2023-06-06T02:05:24.814Z,100567.81
2023-06-06T02:05:57.102Z,100573.25
2023-06-06T02:06:29.571Z,100573.78
2023-06-06T02:07:04.572Z,100571.81
2023-06-06T02:07:42.727Z,100571.81
2023-06-06T02:08:15.619Z,100567.81
2023-06-06T02:08:50.620Z,100572.97
2023-06-06T02:09:22.798Z,100571.34
2023-06-06T02:09:54.961Z,100571.03
2023-06-06T02:10:29.873Z,100573.78
2023-06-06T02:11:02.210Z,100576.50
2023-06-06T02:11:36.423Z,100576.50
2023-06-06T02:12:12.470Z,100571.03
2023-06-06T02:12:44.756Z,100571.34
2023-06-06T02:13:17.687Z,100571.34
2023-06-06T02:13:52.580Z,100579.22
2023-06-06T02:14:24.852Z,100581.13
2023-06-06T02:14:57.243Z,100569.44
2023-06-06T02:15:32.189Z,100574.88
2023-06-06T02:16:05.714Z,100575.69
2023-06-06T02:16:38.022Z,100581.94
2023-06-06T02:17:13.222Z,100576.50
2023-06-06T02:17:45.401Z,100575.69
2023-06-06T02:18:17.693Z,100581.94
2023-06-06T02:18:52.557Z,100584.69
2023-06-06T02:19:25.357Z,100573.25
2023-06-06T02:19:57.636Z,100583.06
2023-06-06T02:20:32.548Z,100580.34
2023-06-06T02:21:04.953Z,100578.41
2023-06-06T02:21:38.197Z,100578.41
2023-06-06T02:22:10.401Z,100576.50
2023-06-06T02:22:47.914Z,100580.81
2023-06-06T02:23:20.240Z,100577.28
2023-06-06T02:23:52.497Z,100583.53
2023-06-06T02:24:28.571Z,100581.94
2023-06-06T02:25:00.762Z,100585.47
2023-06-06T02:25:34.515Z,100577.28
2023-06-06T02:26:09.321Z,100581.94
2023-06-06T02:26:43.710Z,100583.53
2023-06-06T02:27:16.392Z,100581.13
2023-06-06T02:27:51.412Z,100586.59
2023-06-06T02:28:24.673Z,100586.59
2023-06-06T02:28:57.028Z,100578.72
2023-06-06T02:29:32.498Z,100581.94
2023-06-06T02:30:08.473Z,100584.69
2023-06-06T02:30:40.879Z,100577.59
2023-06-06T02:31:18.232Z,100581.13
2023-06-06T02:31:50.772Z,100584.97
2023-06-06T02:32:25.324Z,100578.41
2023-06-06T02:33:00.521Z,100579.53
2023-06-06T02:33:33.954Z,100577.91
2023-06-06T02:34:06.613Z,100575.97
2023-06-06T02:34:41.731Z,100583.06
2023-06-06T02:35:13.948Z,100578.72
2023-06-06T02:35:47.573Z,100577.91
2023-06-06T02:36:22.658Z,100586.09
2023-06-06T02:36:54.950Z,100579.81
2023-06-06T02:37:28.273Z,100581.44
2023-06-06T02:38:07.383Z,100574.38
2023-06-06T02:38:39.639Z,100581.72
2023-06-06T02:39:13.708Z,100577.09
2023-06-06T02:41:06.449Z,100581.16
2023-06-06T02:41:42.311Z,100580.53
2023-06-06T02:42:26.406Z,100574.78
2023-06-06T02:43:20.737Z,100575.59
2023-06-06T02:43:53.087Z,100578.09
2023-06-06T02:44:27.938Z,100575.59
2023-06-06T02:45:00.156Z,100579.91
2023-06-06T02:45:35.766Z,100574.19
2023-06-06T02:46:09.113Z,100580.16
2023-06-06T02:46:41.399Z,100580.16
2023-06-06T02:47:16.460Z,100583.66
2023-06-06T02:47:49.213Z,100576.59
2023-06-06T02:48:22.210Z,100579.81
2023-06-06T02:48:57.068Z,100583.34
2023-06-06T02:49:30.030Z,100584.16
2023-06-06T02:50:02.503Z,100584.16
2023-06-06T02:50:37.798Z,100586.88
2023-06-06T02:51:10.251Z,100583.06
2023-06-06T02:53:01.813Z,100582.47
2023-06-06T02:53:36.976Z,100586.50
2023-06-06T02:54:24.578Z,100578.81
2023-06-06T02:54:56.821Z,100590.00
2023-06-06T02:55:28.999Z,100589.44
2023-06-06T02:56:03.783Z,100583.66
2023-06-06T02:56:36.066Z,100589.63
2023-06-06T02:57:08.350Z,100591.25
2023-06-06T02:57:43.130Z,100587.41
2023-06-06T02:58:30.908Z,100583.66
2023-06-06T02:59:05.899Z,100591.03
2023-06-06T02:59:38.128Z,100589.09
2023-06-06T03:00:12.990Z,100594.56
2023-06-06T03:00:47.883Z,100583.34
2023-06-06T03:01:22.395Z,100584.78
2023-06-06T03:01:57.309Z,100589.09
2023-06-06T03:02:29.732Z,100582.06
2023-06-06T03:03:02.001Z,100589.91
2023-06-06T03:03:37.000Z,100585.28
2023-06-06T03:04:09.355Z,100588.00
2023-06-06T03:04:41.765Z,100588.00
2023-06-06T03:05:18.513Z,100587.19
2023-06-06T03:05:52.519Z,100583.66
2023-06-06T03:06:24.806Z,100580.16
2023-06-06T03:06:59.584Z,100581.72
2023-06-06T03:07:33.342Z,100581.72
2023-06-06T03:08:06.264Z,100580.63
2023-06-06T03:08:46.317Z,100582.25
2023-06-06T03:09:20.564Z,100586.38
2023-06-06T03:09:53.496Z,100584.16
2023-06-06T03:10:33.656Z,100586.38
2023-06-06T03:11:06.358Z,100592.63
2023-06-06T03:11:38.602Z,100587.19
2023-06-06T03:12:13.509Z,100594.25
2023-06-06T03:12:45.861Z,100589.09
2023-06-06T03:13:19.674Z,100589.63
2023-06-06T03:13:54.574Z,100589.09
2023-06-06T03:14:26.786Z,100588.63
2023-06-06T03:14:59.023Z,100589.44
2023-06-06T03:15:41.530Z,100588.63
2023-06-06T03:16:16.868Z,100593.25
2023-06-06T03:16:53.340Z,100595.19
2023-06-06T03:17:27.739Z,100593.88
2023-06-06T03:17:59.991Z,100590.00
2023-06-06T03:18:37.868Z,100590.81
2023-06-06T03:19:14.583Z,100598.53
2023-06-06T03:19:49.901Z,100590.34
2023-06-06T03:20:24.904Z,100594.97
2023-06-06T03:21:06.699Z,100587.09
2023-06-06T03:21:45.354Z,100592.06
2023-06-06T03:22:21.041Z,100590.94
2023-06-06T03:22:53.290Z,100590.16
2023-06-06T03:23:26.360Z,100589.34
2023-06-06T03:24:04.799Z,100589.81
2023-06-06T03:24:37.207Z,100589.34
2023-06-06T03:25:14.687Z,100585.00
2023-06-06T03:25:53.110Z,100587.72
2023-06-06T03:26:28.214Z,100592.38
2023-06-06T03:27:05.306Z,100595.09
2023-06-06T03:27:40.228Z,100594.28
2023-06-06T03:28:13.866Z,100589.94
2023-06-06T03:28:49.724Z,100586.09
2023-06-06T03:29:23.689Z,100598.91
2023-06-06T03:29:57.268Z,100598.63
2023-06-06T03:30:36.177Z,100591.56
2023-06-06T03:31:09.193Z,100599.72
2023-06-06T03:31:50.719Z,100596.19
2023-06-06T03:32:26.744Z,100597.00
2023-06-06T03:33:02.218Z,100597.53
2023-06-06T03:33:36.712Z,100594.47
2023-06-06T03:34:12.151Z,100594.47
2023-06-06T03:34:46.829Z,100594.97
2023-06-06T03:35:19.596Z,100594.69
2023-06-06T03:35:54.574Z,100593.25
2023-06-06T03:36:33.825Z,100595.69
2023-06-06T03:37:07.419Z,100592.97
2023-06-06T03:37:42.005Z,100598.91
2023-06-06T03:38:16.775Z,100592.34
2023-06-06T03:38:49.588Z,100594.44
2023-06-06T03:39:26.936Z,100592.25
2023-06-06T03:40:01.932Z,100596.25
2023-06-06T03:40:34.815Z,100593.72
2023-06-06T03:41:07.221Z,100589.28
2023-06-06T03:41:42.829Z,100589.78
2023-06-06T03:42:15.102Z,100594.59
2023-06-06T03:42:47.562Z,100594.00
2023-06-06T03:43:22.588Z,100594.19
2023-06-06T03:43:55.348Z,100592.75
2023-06-06T03:44:27.628Z,100587.81
2023-06-06T03:45:02.586Z,100600.03
2023-06-06T03:45:34.993Z,100593.19
2023-06-06T03:46:07.360Z,100595.31
2023-06-06T03:46:42.442Z,100592.28
2023-06-06T03:47:14.844Z,100589.72
2023-06-06T03:47:47.167Z,100589.09
2023-06-06T03:48:22.077Z,100589.31
2023-06-06T03:48:55.845Z,100593.34
2023-06-06T03:49:29.480Z,100591.13
2023-06-06T03:50:04.761Z,100597.56
2023-06-06T03:50:37.001Z,100589.84
2023-06-06T03:51:09.463Z,100592.78
2023-06-06T03:51:44.390Z,100600.34
2023-06-06T03:52:19.199Z,100593.75
2023-06-06T03:52:52.755Z,100590.72
2023-06-06T03:53:27.583Z,100592.34
2023-06-06T03:53:59.861Z,100593.97
2023-06-06T03:55:38.434Z,100597.28
2023-06-06T03:56:11.008Z,100595.06
2023-06-06T03:56:43.936Z,100590.91
2023-06-06T03:57:18.953Z,100597.69
2023-06-06T03:58:22.127Z,100596.06
2023-06-06T03:58:57.417Z,100589.31
2023-06-06T03:59:29.675Z,100596.88
2023-06-06T04:00:06.317Z,100583.22
2023-06-06T04:00:46.713Z,100581.78
2023-06-06T04:01:22.418Z,100586.66
2023-06-06T04:01:57.390Z,100587.13
2023-06-06T04:02:31.001Z,100586.50
2023-06-06T04:03:03.920Z,100594.06
2023-06-06T04:03:40.246Z,100589.91
2023-06-06T04:04:16.654Z,100588.78
2023-06-06T04:04:53.186Z,100588.50
2023-06-06T04:05:28.243Z,100591.69
2023-06-06T04:06:04.121Z,100597.97
2023-06-06T04:06:37.224Z,100589.47
2023-06-06T04:07:15.283Z,100589.16
2023-06-06T04:07:47.524Z,100594.31
2023-06-06T04:08:19.826Z,100593.19
2023-06-06T04:08:57.224Z,100592.06
2023-06-06T04:09:30.702Z,100592.06
2023-06-06T04:10:06.410Z,100593.66
2023-06-06T04:10:41.174Z,100590.94
2023-06-06T04:11:13.505Z,100595.28
2023-06-06T04:11:46.258Z,100593.06
2023-06-06T04:12:19.036Z,100596.59
2023-06-06T04:12:53.870Z,100590.00
2023-06-06T04:13:27.398Z,100597.09
2023-06-06T04:13:59.666Z,100592.44
2023-06-06T04:14:34.668Z,100596.78
2023-06-06T04:15:08.077Z,100599.50
2023-06-06T04:15:43.028Z,100598.41
2023-06-06T04:16:16.204Z,100588.59
2023-06-06T04:16:49.284Z,100593.72
2023-06-06T04:17:22.560Z,100592.59
2023-06-06T04:17:57.448Z,100595.03
2023-06-06T04:18:29.689Z,100598.56
2023-06-06T04:19:04.360Z,100600.97
2023-06-06T04:19:39.220Z,100591.34
2023-06-06T04:20:12.884Z,100591.09
2023-06-06T04:20:47.706Z,100589.13
2023-06-06T04:21:20.080Z,100591.56
2023-06-06T04:21:53.294Z,100593.19
2023-06-06T04:22:25.844Z,100594.00
2023-06-06T04:23:01.483Z,100590.44
2023-06-06T04:23:34.287Z,100594.81
2023-06-06T04:24:06.766Z,100587.41
2023-06-06T04:24:41.984Z,100588.69
2023-06-06T04:25:18.508Z,100591.13
2023-06-06T04:25:51.885Z,100591.94
2023-06-06T04:26:27.291Z,100585.31
2023-06-06T04:27:04.675Z,100590.50
2023-06-06T04:27:38.458Z,100600.31
2023-06-06T04:28:19.354Z,100595.31
2023-06-06T04:28:54.756Z,100597.22
2023-06-06T04:29:27.802Z,100585.19
2023-06-06T04:30:02.642Z,100587.28
2023-06-06T04:30:34.946Z,100591.03
2023-06-06T04:31:09.351Z,100585.22
2023-06-06T04:31:46.194Z,100587.66
2023-06-06T04:32:20.910Z,100589.28
2023-06-06T04:32:55.620Z,100588.13
2023-06-06T04:33:31.658Z,100587.81
2023-06-06T04:34:05.176Z,100593.28
2023-06-06T04:34:41.287Z,100589.13
2023-06-06T04:35:18.569Z,100590.72
2023-06-06T04:35:52.486Z,100593.16
2023-06-06T04:36:25.280Z,100590.09
2023-06-06T04:37:05.454Z,100596.84
2023-06-06T04:37:40.810Z,100582.22
2023-06-06T04:38:20.370Z,100583.50
2023-06-06T04:38:53.113Z,100583.03
2023-06-06T04:39:25.502Z,100593.31
2023-06-06T04:40:01.868Z,100589.47
2023-06-06T04:40:55.463Z,100590.75
2023-06-06T04:41:53.536Z,100591.69
2023-06-06T04:42:34.406Z,100589.28
2023-06-06T04:43:08.898Z,100589.28
2023-06-06T04:43:41.119Z,100593.66
2023-06-06T04:44:16.652Z,100589.47
2023-06-06T04:44:50.915Z,100590.28
2023-06-06T04:45:24.599Z,100594.63
2023-06-06T04:46:02.563Z,100589.63
2023-06-06T04:46:35.164Z,100588.81
2023-06-06T04:47:09.683Z,100588.50
2023-06-06T04:47:46.270Z,100584.66
2023-06-06T04:48:19.699Z,100587.41
2023-06-06T04:48:55.608Z,100586.25
2023-06-06T04:49:31.533Z,100590.94
2023-06-06T04:50:07.464Z,100592.53
2023-06-06T04:50:39.714Z,100587.06
2023-06-06T04:51:14.833Z,100583.53
2023-06-06T04:51:47.081Z,100590.59
2023-06-06T04:52:19.510Z,100584.84
2023-06-06T04:52:54.288Z,100590.28
2023-06-06T04:53:26.822Z,100589.19
2023-06-06T04:53:59.581Z,100585.31
2023-06-06T04:54:34.467Z,100589.66
2023-06-06T04:55:08.768Z,100588.03
2023-06-06T04:55:45.202Z,100590.78
2023-06-06T04:56:20.180Z,100586.13
2023-06-06T04:56:52.939Z,100587.25
2023-06-06T04:57:25.840Z,100588.84
2023-06-06T04:58:00.649Z,100587.72
2023-06-06T04:58:32.837Z,100588.53
2023-06-06T04:59:08.373Z,100584.69
2023-06-06T04:59:43.376Z,100591.78
2023-06-06T05:00:18.011Z,100587.91
2023-06-06T05:00:50.606Z,100583.22
2023-06-06T05:01:24.575Z,100593.88
2023-06-06T05:01:59.746Z,100594.66
2023-06-06T05:02:31.955Z,100593.88
2023-06-06T05:03:04.902Z,100590.00
2023-06-06T05:03:39.778Z,100590.00
2023-06-06T05:04:11.989Z,100590.00
2023-06-06T05:04:44.236Z,100588.69
2023-06-06T05:05:19.573Z,100588.69
2023-06-06T05:05:52.940Z,100593.38
2023-06-06T05:06:28.512Z,100589.03
2023-06-06T05:07:03.807Z,100588.53
2023-06-06T05:07:36.028Z,100591.28
2023-06-06T05:08:08.221Z,100586.91
2023-06-06T05:08:45.868Z,100590.47
2023-06-06T05:09:18.812Z,100590.00
2023-06-06T05:09:51.011Z,100592.72
2023-06-06T05:10:25.842Z,100597.38
2023-06-06T05:11:00.618Z,100585.63
2023-06-06T05:11:32.943Z,100590.28
2023-06-06T05:12:08.614Z,100586.75
2023-06-06T05:12:40.886Z,100588.22
2023-06-06T05:13:13.068Z,100586.59
2023-06-06T05:13:47.898Z,100589.31
2023-06-06T05:14:24.855Z,100584.97
2023-06-06T05:14:59.770Z,100591.91
2023-06-06T05:15:31.962Z,100588.66
2023-06-06T05:16:04.449Z,100591.09
2023-06-06T05:16:37.151Z,100590.28
2023-06-06T05:17:12.296Z,100584.81
2023-06-06T05:17:56.567Z,100587.84
2023-06-06T05:18:31.139Z,100587.69
2023-06-06T05:19:06.389Z,100587.69
2023-06-06T05:19:39.889Z,100589.59
2023-06-06T05:20:15.689Z,100593.16
2023-06-06T05:20:48.013Z,100578.97
2023-06-06T05:21:21.163Z,100590.41
2023-06-06T05:21:55.983Z,100597.81
2023-06-06T05:22:28.502Z,100593.78
2023-06-06T05:23:01.376Z,100589.91
2023-06-06T05:23:36.395Z,100593.16
2023-06-06T05:24:08.843Z,100596.69
2023-06-06T05:24:43.747Z,100599.41
2023-06-06T05:25:15.984Z,100597.50
2023-06-06T05:25:48.350Z,100590.91
2023-06-06T05:26:26.542Z,100593.31
2023-06-06T05:26:58.913Z,100592.50
2023-06-06T05:27:33.774Z,100594.94
2023-06-06T05:28:06.037Z,100595.75
2023-06-06T05:28:39.231Z,100592.69
2023-06-06T05:29:14.114Z,100592.69
2023-06-06T05:29:46.325Z,100592.38
2023-06-06T05:30:18.753Z,100589.31
2023-06-06T05:30:54.352Z,100594.44
2023-06-06T05:31:27.163Z,100593.34
2023-06-06T05:32:02.058Z,100599.31
2023-06-06T05:32:34.394Z,100591.91
2023-06-06T05:33:06.637Z,100589.19
2023-06-06T05:33:43.621Z,100592.38
2023-06-06T05:34:15.985Z,100596.25
2023-06-06T05:34:49.164Z,100597.84
2023-06-06T05:35:23.958Z,100594.81
2023-06-06T05:35:57.078Z,100590.16
2023-06-06T05:36:29.416Z,100593.69
2023-06-06T05:37:04.415Z,100593.38
2023-06-06T05:37:36.603Z,100593.38
2023-06-06T05:38:08.798Z,100592.56
2023-06-06T05:38:43.967Z,100588.69
2023-06-06T05:39:18.433Z,100593.38
2023-06-06T05:39:55.274Z,100594.16
2023-06-06T05:40:27.510Z,100594.97
2023-06-06T05:40:59.771Z,100591.13
2023-06-06T05:41:37.345Z,100594.34
2023-06-06T05:42:09.694Z,100592.75
2023-06-06T05:42:42.037Z,100586.94
2023-06-06T05:43:15.558Z,100587.44
2023-06-06T05:43:51.491Z,100585.00
2023-06-06T05:44:24.187Z,100587.75
2023-06-06T05:44:59.086Z,100579.53
2023-06-06T05:45:31.525Z,100585.00
2023-06-06T05:46:03.947Z,100581.97
2023-06-06T05:46:39.095Z,100577.31
2023-06-06T05:47:11.457Z,100589.06
2023-06-06T05:47:43.687Z,100587.91
2023-06-06T05:48:18.544Z,100579.72
2023-06-06T05:48:50.710Z,100580.06
2023-06-06T05:49:26.362Z,100581.97
2023-06-06T05:49:59.337Z,100579.25
2023-06-06T05:50:32.030Z,100576.19
2023-06-06T05:51:09.124Z,100581.66
2023-06-06T05:51:43.414Z,100591.00
2023-06-06T05:52:18.171Z,100578.94
2023-06-06T05:52:50.360Z,100575.84
2023-06-06T05:53:23.357Z,100583.75
2023-06-06T05:54:12.408Z,100583.09
2023-06-06T05:54:50.678Z,100586.66
2023-06-06T05:55:32.456Z,100587.16
2023-06-06T05:56:05.884Z,100589.06
2023-06-06T05:56:43.409Z,100581.69
2023-06-06T05:57:22.400Z,100590.66
2023-06-06T05:57:54.614Z,100584.72
2023-06-06T05:58:29.610Z,100587.47
2023-06-06T05:59:01.834Z,100590.19
2023-06-06T05:59:35.527Z,100589.38
2023-06-06T06:00:12.111Z,100591.31
2023-06-06T06:00:47.156Z,100590.84
2023-06-06T06:01:20.037Z,100588.41
2023-06-06T06:01:54.796Z,100586.50
2023-06-06T06:02:27.663Z,100590.84
2023-06-06T06:03:01.892Z,100591.63
2023-06-06T06:03:37.193Z,100591.63
2023-06-06T06:04:09.799Z,100591.63
2023-06-06T06:04:42.701Z,100594.34
2023-06-06T06:05:17.851Z,100594.03
2023-06-06T06:05:51.140Z,100594.84
2023-06-06T06:06:25.960Z,100590.19
2023-06-06T06:06:58.152Z,100596.94
2023-06-06T06:07:30.427Z,100590.34
2023-06-06T06:08:07.596Z,100594.41
2023-06-06T06:08:39.818Z,100594.41
2023-06-06T06:09:14.825Z,100596.00
2023-06-06T06:09:47.573Z,100600.66
2023-06-06T06:10:19.823Z,100596.78
2023-06-06T06:10:54.732Z,100590.50
2023-06-06T06:11:27.465Z,100591.31
2023-06-06T06:12:02.295Z,100591.31
2023-06-06T06:12:37.132Z,100587.78
2023-06-06T06:13:09.340Z,100589.41
2023-06-06T06:13:41.577Z,100592.94
2023-06-06T06:14:16.372Z,100588.28
2023-06-06T06:14:48.590Z,100593.44
2023-06-06T06:15:21.105Z,100595.88
2023-06-06T06:15:56.056Z,100596.38
2023-06-06T06:16:28.470Z,100589.78
2023-06-06T06:17:00.744Z,100586.41
2023-06-06T06:17:41.597Z,100588.47
2023-06-06T06:18:14.132Z,100583.50
2023-06-06T06:18:46.547Z,100591.06
2023-06-06T06:19:21.395Z,100587.69
2023-06-06T06:19:53.620Z,100588.19
2023-06-06T06:20:25.902Z,100590.25
2023-06-06T06:21:00.976Z,100582.56
2023-06-06T06:21:33.407Z,100592.03
2023-06-06T06:22:06.040Z,100592.53
2023-06-06T06:22:38.849Z,100585.59
2023-06-06T06:23:13.677Z,100584.47
2023-06-06T06:23:45.949Z,100594.31
2023-06-06T06:24:18.137Z,100584.97
2023-06-06T06:24:53.262Z,100583.81
2023-06-06T06:25:25.930Z,100579.97
2023-06-06T06:25:58.293Z,100584.63
2023-06-06T06:26:33.081Z,100587.06
2023-06-06T06:27:08.035Z,100583.50
2023-06-06T06:27:40.509Z,100585.44
2023-06-06T06:28:23.010Z,100587.72
2023-06-06T06:28:56.947Z,100585.28
2023-06-06T06:29:29.130Z,100586.09
2023-06-06T06:30:05.582Z,100583.00
2023-06-06T06:30:37.805Z,100587.72
2023-06-06T06:31:10.297Z,100588.50
2023-06-06T06:31:45.211Z,100582.72
2023-06-06T06:32:18.712Z,100586.25
2023-06-06T06:32:51.010Z,100584.31
2023-06-06T06:33:26.650Z,100588.69
2023-06-06T06:33:59.088Z,100582.06
2023-06-06T06:34:31.275Z,100586.41
2023-06-06T06:35:06.494Z,100584.97
2023-06-06T06:35:38.671Z,100585.75
2023-06-06T06:36:11.422Z,100586.25
2023-06-06T06:36:46.202Z,100587.06
2023-06-06T06:37:18.383Z,100584.78
2023-06-06T06:37:53.473Z,100592.69
2023-06-06T06:38:26.396Z,100583.34
2023-06-06T06:38:58.691Z,100582.22
2023-06-06T06:39:33.445Z,100586.56
2023-06-06T06:40:08.017Z,100590.91
2023-06-06T06:40:42.777Z,100585.44
2023-06-06T06:41:15.041Z,100583.50
2023-06-06T06:41:47.558Z,100584.00
2023-06-06T06:42:24.976Z,100579.31
2023-06-06T06:43:11.715Z,100578.03
2023-06-06T06:44:03.396Z,100589.28